Time,TemperatureF,DewpointF,PressureIn,WindDirection,WindDirectionDegrees,WindSpeedMPH,WindSpeedGustMPH,Humidity,HourlyPrecipIn,Conditions,Clouds,dailyrainin,SoftwareType,DateUTC
2013-01-01 00:02:00,-6.2,-29.6,30.27,WNW,290,0.0,0.3,30,0.00,CLR,,0.00,WeatherDisplay:10.37,2013-01-01 06:02:00,
2013-01-01 00:08:00,-6.3,-29.8,30.27,WNW,290,0.0,0.3,30,0.00,CLR,,0.00,WeatherDisplay:10.37,2013-01-01 06:08:00,
2013-01-01 00:13:00,-6.3,-29.2,30.27,WNW,290,0.0,0.1,31,0.00,CLR,,0.00,WeatherDisplay:10.37,2013-01-01 06:13:00,
2013-01-01 00:18:00,-6.5,-29.3,30.27,West,280,3.5,3.5,31,0.00,CLR,,0.00,WeatherDisplay:10.37,2013-01-01 06:18:00,
2013-01-01 00:23:00,-6.5,-29.3,30.27,West,280,3.5,3.5,31,0.00,CLR,,0.00,WeatherDisplay:10.37,2013-01-01 06:23:00,
2013-01-01 00:28:00,-6.7,-29.5,30.27,SW,235,3.5,3.5,31,0.00,CLR,,0.00,WeatherDisplay:10.37,2013-01-01 06:28:00,
2013-01-01 00:34:00,-7.1,-29.8,30.27,SW,235,0.0,2.6,31,0.00,CLR,,0.00,WeatherDisplay:10.37,2013-01-01 06:34:00,
2013-01-01 00:39:00,-7.1,-29.8,30.27,SW,235,2.3,2.3,31,0.00,CLR,,0.00,WeatherDisplay:10.37,2013-01-01 06:39:00,
2013-01-01 00:44:00,-7.6,-30.3,30.27,SW,235,3.5,3.5,31,0.00,CLR,,0.00,WeatherDisplay:10.37,2013-01-01 06:44:00,
2013-01-01 00:49:00,-7.8,-30.5,30.27,SW,235,2.3,2.3,31,0.00,CLR,,0.00,WeatherDisplay:10.37,2013-01-01 06:49:00,
2013-01-01 00:54:00,-8.0,-30.6,30.27,WSW,240,3.5,3.5,31,0.00,CLR,,0.00,WeatherDisplay:10.37,2013-01-01 06:54:00,
2013-01-01 00:59:00,-7.8,-30.5,30.27,WSW,240,3.5,3.5,31,0.00,CLR,,0.00,WeatherDisplay:10.37,2013-01-01 06:59:00,
2013-01-01 01:04:00,-7.6,-29.7,30.27,WSW,240,2.3,3.0,32,0.00,CLR,,0.00,WeatherDisplay:10.37,2013-01-01 07:04:00,
2013-01-01 01:09:00,-7.4,-29.5,30.27,WSW,240,3.5,3.5,32,0.00,CLR,,0.00,WeatherDisplay:10.37,2013-01-01 07:09:00,
2013-01-01 01:15:00,-7.8,-29.9,30.27,WSW,240,0.0,2.9,32,0.00,CLR,,0.00,WeatherDisplay:10.37,2013-01-01 07:15:00,
2013-01-01 01:20:00,-7.6,-30.3,30.27,WSW,240,2.3,3.0,31,0.00,CLR,,0.00,WeatherDisplay:10.37,2013-01-01 07:20:00,
2013-01-01 01:25:00,-7.8,-29.9,30.27,WSW,240,2.3,2.3,32,0.00,CLR,,0.00,WeatherDisplay:10.37,2013-01-01 07:25:00,
2013-01-01 01:30:00,-8.0,-30.0,30.27,WSW,240,0.0,1.7,32,0.00,CLR,,0.00,WeatherDisplay:10.37,2013-01-01 07:30:00,
2013-01-01 01:35:00,-8.0,-30.0,30.27,WSW,240,0.0,1.0,32,0.00,CLR,,0.00,WeatherDisplay:10.37,2013-01-01 07:35:00,
2013-01-01 01:40:00,-8.3,-30.4,30.27,WSW,240,0.0,0.8,32,0.00,CLR,,0.00,WeatherDisplay:10.37,2013-01-01 07:40:00,
2013-01-01 01:46:00,-8.1,-30.2,30.27,WSW,240,0.0,0.0,32,0.00,CLR,,0.00,WeatherDisplay:10.37,2013-01-01 07:46:00,
2013-01-01 01:51:00,-8.1,-30.2,30.27,WSW,240,0.0,0.0,32,0.00,CLR,,0.00,WeatherDisplay:10.37,2013-01-01 07:51:00,
2013-01-01 01:56:00,-8.0,-30.0,30.27,WSW,240,0.0,0.0,32,0.00,CLR,,0.00,WeatherDisplay:10.37,2013-01-01 07:56:00,
2013-01-01 02:01:00,-8.0,-30.0,30.27,WSW,240,0.0,0.0,32,0.00,CLR,,0.00,WeatherDisplay:10.37,2013-01-01 08:01:00,
2013-01-01 02:06:00,-8.1,-30.2,30.24,WSW,240,0.0,0.0,32,0.00,CLR,,0.00,WeatherDisplay:10.37,2013-01-01 08:06:00,
2013-01-01 02:12:00,-8.3,-30.4,30.24,WSW,240,2.3,2.3,32,0.00,CLR,,0.00,WeatherDisplay:10.37,2013-01-01 08:12:00,
2013-01-01 02:17:00,-8.3,-30.4,30.24,WSW,240,0.0,0.7,32,0.00,CLR,,0.00,WeatherDisplay:10.37,2013-01-01 08:17:00,
2013-01-01 02:22:00,-8.3,-30.4,30.27,WSW,240,2.3,2.3,32,0.00,CLR,,0.00,WeatherDisplay:10.37,2013-01-01 08:22:00,
2013-01-01 02:27:00,-8.3,-30.4,30.27,WSW,240,0.0,1.0,32,0.00,CLR,,0.00,WeatherDisplay:10.37,2013-01-01 08:27:00,
2013-01-01 02:32:00,-8.5,-30.5,30.27,WSW,240,0.0,0.8,32,0.00,CLR,,0.00,WeatherDisplay:10.37,2013-01-01 08:32:00,
2013-01-01 02:38:00,-8.5,-30.5,30.27,WSW,240,0.0,0.3,32,0.00,CLR,,0.00,WeatherDisplay:10.37,2013-01-01 08:38:00,
2013-01-01 02:43:00,-8.5,-30.5,30.27,WSW,240,0.0,0.1,32,0.00,CLR,,0.00,WeatherDisplay:10.37,2013-01-01 08:43:00,
2013-01-01 02:48:00,-8.9,-30.8,30.27,WSW,240,3.5,3.5,32,0.00,CLR,,0.00,WeatherDisplay:10.37,2013-01-01 08:48:00,
2013-01-01 02:53:00,-9.0,-31.0,30.27,SW,235,3.5,3.5,32,0.00,CLR,,0.00,WeatherDisplay:10.37,2013-01-01 08:53:00,
2013-01-01 02:59:00,-9.0,-31.0,30.27,SW,230,2.3,2.3,32,0.00,CLR,,0.00,WeatherDisplay:10.37,2013-01-01 08:59:00,
2013-01-01 03:04:00,-9.0,-31.0,30.27,SW,230,4.6,4.6,32,0.00,CLR,,0.00,WeatherDisplay:10.37,2013-01-01 09:04:00,
2013-01-01 03:09:00,-9.2,-31.2,30.27,SW,225,4.6,4.6,32,0.00,CLR,,0.00,WeatherDisplay:10.37,2013-01-01 09:09:00,
2013-01-01 03:14:00,-9.2,-31.2,30.27,SW,225,4.6,4.6,32,0.00,CLR,,0.00,WeatherDisplay:10.37,2013-01-01 09:14:00,
2013-01-01 03:19:00,-9.6,-31.5,30.27,SW,225,3.5,3.5,32,0.00,CLR,,0.00,WeatherDisplay:10.37,2013-01-01 09:19:00,
2013-01-01 03:24:00,-9.8,-31.6,30.27,SSW,210,4.6,4.6,32,0.00,CLR,,0.00,WeatherDisplay:10.37,2013-01-01 09:24:00,
2013-01-01 03:30:00,-9.6,-31.5,30.27,SW,220,4.6,4.6,32,0.00,CLR,,0.00,WeatherDisplay:10.37,2013-01-01 09:30:00,
2013-01-01 03:35:00,-9.6,-31.5,30.27,SSW,205,4.6,4.6,32,0.00,CLR,,0.00,WeatherDisplay:10.37,2013-01-01 09:35:00,
2013-01-01 03:40:00,-9.6,-31.5,30.27,SW,215,3.5,4.7,32,0.00,CLR,,0.00,WeatherDisplay:10.37,2013-01-01 09:40:00,
2013-01-01 03:45:00,-9.6,-31.5,30.27,SW,215,3.5,4.4,32,0.00,CLR,,0.00,WeatherDisplay:10.37,2013-01-01 09:45:00,
2013-01-01 03:50:00,-9.8,-31.6,30.27,SW,215,3.5,4.2,32,0.00,CLR,,0.00,WeatherDisplay:10.37,2013-01-01 09:50:00,
2013-01-01 03:55:00,-9.8,-31.6,30.27,SW,215,3.5,3.9,32,0.00,CLR,,0.00,WeatherDisplay:10.37,2013-01-01 09:55:00,
2013-01-01 04:01:00,-9.8,-31.6,30.27,SW,215,3.5,3.5,32,0.00,CLR,,0.00,WeatherDisplay:10.37,2013-01-01 10:01:00,
2013-01-01 04:06:00,-9.9,-31.8,30.27,SW,220,5.8,5.8,32,0.00,CLR,,0.00,WeatherDisplay:10.37,2013-01-01 10:06:00,
2013-01-01 04:11:00,-9.8,-31.6,30.27,SW,220,0.4,3.6,32,0.00,CLR,,0.00,WeatherDisplay:10.37,2013-01-01 10:11:00,
2013-01-01 04:16:00,-9.9,-31.8,30.27,SW,220,0.0,3.1,32,0.00,CLR,,0.00,WeatherDisplay:10.37,2013-01-01 10:16:00,
2013-01-01 04:22:00,-9.9,-31.8,30.24,SW,215,2.3,2.5,32,0.00,CLR,,0.00,WeatherDisplay:10.37,2013-01-01 10:22:00,
2013-01-01 04:27:00,-10.1,-32.0,30.27,SW,230,3.5,3.5,32,0.00,CLR,,0.00,WeatherDisplay:10.37,2013-01-01 10:27:00,
2013-01-01 04:32:00,-9.9,-31.8,30.27,SW,220,1.1,2.0,32,0.00,CLR,,0.00,WeatherDisplay:10.37,2013-01-01 10:32:00,
2013-01-01 04:37:00,-9.9,-31.8,30.27,SW,220,0.0,1.7,32,0.00,CLR,,0.00,WeatherDisplay:10.37,2013-01-01 10:37:00,
2013-01-01 04:42:00,-9.9,-31.8,30.27,SW,220,1.1,1.3,32,0.00,CLR,,0.00,WeatherDisplay:10.37,2013-01-01 10:42:00,
2013-01-01 04:47:00,-9.9,-31.8,30.27,SW,220,1.1,1.3,32,0.00,CLR,,0.00,WeatherDisplay:10.37,2013-01-01 10:47:00,
2013-01-01 04:53:00,-10.1,-32.0,30.27,SW,220,0.0,0.3,32,0.00,CLR,,0.00,WeatherDisplay:10.37,2013-01-01 10:53:00,
2013-01-01 04:58:00,-10.1,-32.0,30.27,SW,220,0.0,0.3,32,0.00,CLR,,0.00,WeatherDisplay:10.37,2013-01-01 10:58:00,
2013-01-01 05:03:00,-10.3,-32.1,30.27,SW,220,0.0,0.3,32,0.00,CLR,,0.00,WeatherDisplay:10.37,2013-01-01 11:03:00,
2013-01-01 05:08:00,-10.5,-32.3,30.27,SW,220,0.0,0.1,32,0.00,CLR,,0.00,WeatherDisplay:10.37,2013-01-01 11:08:00,
2013-01-01 05:14:00,-10.5,-32.3,30.27,SW,220,0.0,0.0,32,0.00,CLR,,0.00,WeatherDisplay:10.37,2013-01-01 11:14:00,
2013-01-01 05:19:00,-10.5,-32.3,30.27,SW,220,0.0,0.0,32,0.00,CLR,,0.00,WeatherDisplay:10.37,2013-01-01 11:19:00,
2013-01-01 05:24:00,-10.3,-32.1,30.27,SW,220,0.0,0.0,32,0.00,CLR,,0.00,WeatherDisplay:10.37,2013-01-01 11:24:00,
2013-01-01 05:29:00,-10.5,-32.3,30.27,SW,220,0.0,0.0,32,0.00,CLR,,0.00,WeatherDisplay:10.37,2013-01-01 11:29:00,
2013-01-01 05:34:00,-10.7,-32.4,30.27,SW,220,0.0,0.0,32,0.00,CLR,,0.00,WeatherDisplay:10.37,2013-01-01 11:34:00,
2013-01-01 05:40:00,-10.7,-32.4,30.27,SW,220,0.0,0.0,32,0.00,CLR,,0.00,WeatherDisplay:10.37,2013-01-01 11:40:00,
2013-01-01 05:45:00,-10.7,-32.4,30.27,SW,220,0.0,0.0,32,0.00,CLR,,0.00,WeatherDisplay:10.37,2013-01-01 11:45:00,
2013-01-01 05:50:00,-10.7,-32.4,30.27,SW,220,0.0,0.3,32,0.00,CLR,,0.00,WeatherDisplay:10.37,2013-01-01 11:50:00,
2013-01-01 05:55:00,-10.7,-32.4,30.27,SW,220,0.0,0.3,32,0.00,CLR,,0.00,WeatherDisplay:10.37,2013-01-01 11:55:00,
2013-01-01 06:01:00,-10.7,-32.4,30.27,SW,220,0.0,0.3,32,0.00,CLR,,0.00,WeatherDisplay:10.37,2013-01-01 12:01:00,
2013-01-01 06:06:00,-10.7,-32.4,30.27,SW,220,0.0,0.1,32,0.00,CLR,,0.00,WeatherDisplay:10.37,2013-01-01 12:06:00,
2013-01-01 06:11:00,-10.7,-32.4,30.27,SW,220,0.0,0.0,32,0.00,CLR,,0.00,WeatherDisplay:10.37,2013-01-01 12:11:00,
2013-01-01 06:16:00,-10.8,-32.6,30.27,SW,220,0.0,0.0,32,0.00,CLR,,0.00,WeatherDisplay:10.37,2013-01-01 12:16:00,
2013-01-01 06:22:00,-10.7,-32.4,30.27,SW,220,0.0,0.0,32,0.00,CLR,,0.00,WeatherDisplay:10.37,2013-01-01 12:22:00,
2013-01-01 06:27:00,-10.8,-32.6,30.27,SW,220,0.0,0.0,32,0.00,CLR,,0.00,WeatherDisplay:10.37,2013-01-01 12:27:00,
2013-01-01 06:32:00,-10.8,-32.6,30.27,SW,220,0.0,0.0,32,0.00,CLR,,0.00,WeatherDisplay:10.37,2013-01-01 12:32:00,
2013-01-01 06:37:00,-10.8,-32.6,30.27,SW,220,0.0,0.0,32,0.00,CLR,,0.00,WeatherDisplay:10.37,2013-01-01 12:37:00,
2013-01-01 06:42:00,-10.8,-32.6,30.27,SW,220,2.3,2.3,32,0.00,CLR,,0.00,WeatherDisplay:10.37,2013-01-01 12:42:00,
2013-01-01 06:48:00,-10.8,-32.6,30.27,SW,220,1.1,1.1,32,0.00,CLR,,0.00,WeatherDisplay:10.37,2013-01-01 12:48:00,
2013-01-01 06:53:00,-10.8,-32.6,30.27,SW,220,0.0,1.0,32,0.00,CLR,,0.00,WeatherDisplay:10.37,2013-01-01 12:53:00,
2013-01-01 06:58:00,-10.8,-32.6,30.27,SW,220,0.0,1.0,32,0.00,CLR,,0.00,WeatherDisplay:10.37,2013-01-01 12:58:00,
2013-01-01 07:03:00,-10.8,-32.0,30.24,SW,215,3.5,3.5,33,0.00,CLR,,0.00,WeatherDisplay:10.37,2013-01-01 13:03:00,
2013-01-01 07:08:00,-10.8,-32.6,30.24,SSW,205,3.5,3.5,32,0.00,CLR,,0.00,WeatherDisplay:10.37,2013-01-01 13:08:00,
2013-01-01 07:13:00,-10.8,-32.6,30.24,SSW,205,2.0,4.0,32,0.00,CLR,,0.00,WeatherDisplay:10.37,2013-01-01 13:13:00,
2013-01-01 07:19:00,-11.0,-32.8,30.24,SSW,205,3.5,3.5,32,0.00,CLR,,0.00,WeatherDisplay:10.37,2013-01-01 13:19:00,
2013-01-01 07:24:00,-11.0,-32.8,30.24,SSW,205,2.3,2.9,32,0.00,CLR,,0.00,WeatherDisplay:10.37,2013-01-01 13:24:00,
2013-01-01 07:29:00,-10.8,-32.6,30.24,SSW,205,4.6,4.6,32,0.00,CLR,,0.00,WeatherDisplay:10.37,2013-01-01 13:29:00,
2013-01-01 07:35:00,-10.8,-32.6,30.24,SSW,205,4.6,4.6,32,0.00,CLR,,0.00,WeatherDisplay:10.37,2013-01-01 13:35:00,
2013-01-01 07:40:00,-11.0,-32.8,30.27,SW,215,4.6,4.6,32,0.00,CLR,,0.00,WeatherDisplay:10.37,2013-01-01 13:40:00,
2013-01-01 07:45:00,-11.4,-33.1,30.27,SW,215,5.8,5.8,32,0.00,CLR,,0.00,WeatherDisplay:10.37,2013-01-01 13:45:00,
2013-01-01 07:50:00,-11.2,-32.9,30.27,SSW,210,3.5,4.8,32,0.00,CLR,,0.00,WeatherDisplay:10.37,2013-01-01 13:50:00,
2013-01-01 07:55:00,-11.4,-33.1,30.24,SSW,210,4.6,4.7,32,0.00,CLR,,0.00,WeatherDisplay:10.37,2013-01-01 13:55:00,
2013-01-01 08:00:00,-11.2,-32.9,30.24,SW,215,3.5,4.4,32,0.00,CLR,,0.00,WeatherDisplay:10.37,2013-01-01 14:00:00,
2013-01-01 08:06:00,-11.2,-32.9,30.24,SW,215,3.5,4.4,32,0.00,CLR,,0.00,WeatherDisplay:10.37,2013-01-01 14:06:00,
2013-01-01 08:11:00,-11.2,-32.9,30.24,SSW,205,3.5,3.8,32,0.00,CLR,,0.00,WeatherDisplay:10.37,2013-01-01 14:11:00,
2013-01-01 08:16:00,-9.8,-31.1,30.24,SSW,205,3.5,3.5,33,0.00,CLR,,0.00,WeatherDisplay:10.37,2013-01-01 14:16:00,
2013-01-01 08:21:00,-9.8,-30.5,30.24,SSW,205,4.6,4.6,34,0.00,CLR,,0.00,WeatherDisplay:10.37,2013-01-01 14:21:00,
2013-01-01 08:26:00,-8.7,-29.0,30.24,SSW,205,5.8,5.8,35,0.00,CLR,,0.00,WeatherDisplay:10.37,2013-01-01 14:26:00,
2013-01-01 08:31:00,-8.1,-28.5,30.24,SSW,210,0.0,3.3,35,0.00,CLR,,0.00,WeatherDisplay:10.37,2013-01-01 14:31:00,
2013-01-01 08:36:00,-7.6,-28.1,30.24,SSW,210,0.0,2.9,35,0.00,CLR,,0.00,WeatherDisplay:10.37,2013-01-01 14:36:00,
2013-01-01 08:42:00,-7.6,-28.1,30.24,SSW,210,0.0,2.3,35,0.00,CLR,,0.00,WeatherDisplay:10.37,2013-01-01 14:42:00,
2013-01-01 08:47:00,-6.5,-26.6,30.24,SSW,210,4.6,4.6,36,0.00,CLR,,0.00,WeatherDisplay:10.37,2013-01-01 14:47:00,
2013-01-01 08:52:00,-5.8,-25.9,30.24,SSW,210,0.0,2.1,36,0.00,CLR,,0.00,WeatherDisplay:10.37,2013-01-01 14:52:00,
2013-01-01 08:57:00,-5.8,-25.9,30.24,SSW,210,2.3,2.3,36,0.00,CLR,,0.00,WeatherDisplay:10.37,2013-01-01 14:57:00,
2013-01-01 09:03:00,3.7,-15.2,30.24,SSW,210,3.5,3.5,40,0.00,CLR,,0.00,WeatherDisplay:10.37,2013-01-01 15:03:00,
2013-01-01 09:08:00,7.9,-11.0,30.24,SSW,195,3.5,3.5,41,0.00,CLR,,0.00,WeatherDisplay:10.37,2013-01-01 15:08:00,
2013-01-01 09:13:00,13.3,-5.1,30.24,South,185,3.5,3.5,43,0.00,CLR,,0.00,WeatherDisplay:10.37,2013-01-01 15:13:00,
2013-01-01 09:19:00,17.2,-2.5,30.24,South,190,3.5,3.5,41,0.00,FEW,,0.00,WeatherDisplay:10.37,2013-01-01 15:19:00,
2013-01-01 09:24:00,22.5,-0.5,30.24,SSW,200,4.6,4.6,36,0.00,FEW,,0.00,WeatherDisplay:10.37,2013-01-01 15:24:00,
2013-01-01 09:29:00,23.2,-2.4,30.24,SSW,210,6.9,6.9,32,0.00,FEW,,0.00,WeatherDisplay:10.37,2013-01-01 15:29:00,
2013-01-01 09:34:00,21.9,-13.1,30.24,SW,225,5.8,5.8,20,0.00,BKN,,0.00,WeatherDisplay:10.37,2013-01-01 15:34:00,
2013-01-01 09:39:00,22.3,-12.8,30.24,SSW,205,6.9,6.9,20,0.00,BKN,,0.00,WeatherDisplay:10.37,2013-01-01 15:39:00,
2013-01-01 09:44:00,22.6,-12.5,30.24,SW,220,6.9,6.9,20,0.00,BKN,,0.00,WeatherDisplay:10.37,2013-01-01 15:44:00,
2013-01-01 09:50:00,12.6,-21.0,30.24,SW,215,5.8,6.7,20,0.00,BKN,,0.00,WeatherDisplay:10.37,2013-01-01 15:50:00,
2013-01-01 09:55:00,7.5,-25.3,30.24,SSW,210,5.8,6.6,20,0.00,BKN,,0.00,WeatherDisplay:10.37,2013-01-01 15:55:00,
2013-01-01 10:00:00,3.4,-28.8,30.24,SSW,195,6.9,6.9,20,0.00,SCT,,0.00,WeatherDisplay:10.37,2013-01-01 16:00:00,
2013-01-01 10:05:00,2.3,-29.7,30.24,South,185,6.9,6.9,20,0.00,SCT,,0.00,WeatherDisplay:10.37,2013-01-01 16:05:00,
2013-01-01 10:10:00,1.9,-30.0,30.24,South,185,4.6,6.0,20,0.00,SCT,,0.00,WeatherDisplay:10.37,2013-01-01 16:10:00,
2013-01-01 10:16:00,1.9,-30.0,30.24,South,180,5.8,5.8,20,0.00,CLR,,0.00,WeatherDisplay:10.37,2013-01-01 16:16:00,
2013-01-01 10:21:00,2.3,-29.7,30.24,SSW,200,6.9,6.9,20,0.00,CLR,,0.00,WeatherDisplay:10.37,2013-01-01 16:21:00,
2013-01-01 10:27:00,3.0,-29.1,30.24,SW,225,5.8,5.8,20,0.00,CLR,,0.00,WeatherDisplay:10.37,2013-01-01 16:27:00,
2013-01-01 10:32:00,3.4,-28.8,30.24,SW,225,5.8,5.8,20,0.00,CLR,,0.00,WeatherDisplay:10.37,2013-01-01 16:32:00,
2013-01-01 10:37:00,3.6,-28.6,30.21,South,170,6.9,6.9,20,0.00,CLR,,0.00,WeatherDisplay:10.37,2013-01-01 16:37:00,
2013-01-01 10:42:00,3.7,-28.5,30.21,SSW,210,6.8,6.8,20,0.00,CLR,,0.00,WeatherDisplay:10.37,2013-01-01 16:42:00,
2013-01-01 10:47:00,4.3,-28.0,30.21,SSW,205,6.9,6.9,20,0.00,CLR,,0.00,WeatherDisplay:10.37,2013-01-01 16:47:00,
2013-01-01 10:52:00,4.6,-27.7,30.21,SSW,200,5.8,6.4,20,0.00,CLR,,0.00,WeatherDisplay:10.37,2013-01-01 16:52:00,
2013-01-01 10:57:00,5.5,-24.3,30.21,SW,220,8.1,8.1,23,0.00,CLR,,0.00,WeatherDisplay:10.37,2013-01-01 16:57:00,
2013-01-01 11:03:00,5.2,-26.4,30.21,SSW,200,8.1,8.1,21,0.00,CLR,,0.00,WeatherDisplay:10.37,2013-01-01 17:03:00,
2013-01-01 11:08:00,5.5,-26.0,30.21,SSW,200,9.2,9.2,21,0.00,CLR,,0.00,WeatherDisplay:10.37,2013-01-01 17:08:00,
2013-01-01 11:13:00,5.4,-27.1,30.21,South,190,10.4,10.4,20,0.00,CLR,,0.00,WeatherDisplay:10.37,2013-01-01 17:13:00,
2013-01-01 11:18:00,5.9,-26.7,30.21,SSW,195,6.9,8.7,20,0.00,BKN,,0.00,WeatherDisplay:10.37,2013-01-01 17:18:00,
2013-01-01 11:23:00,5.9,-26.7,30.21,South,180,8.1,8.6,20,0.00,BKN,,0.00,WeatherDisplay:10.37,2013-01-01 17:23:00,
2013-01-01 11:28:00,6.6,-26.0,30.21,South,175,4.6,8.1,20,0.00,BKN,,0.00,WeatherDisplay:10.37,2013-01-01 17:28:00,
2013-01-01 11:33:00,6.6,-26.0,30.21,SSE,165,5.8,7.4,20,0.00,BKN,,0.00,WeatherDisplay:10.37,2013-01-01 17:33:00,
2013-01-01 11:39:00,6.6,-26.0,30.21,SSE,165,2.3,6.2,20,0.00,BKN,,0.00,WeatherDisplay:10.37,2013-01-01 17:39:00,
2013-01-01 11:44:00,7.9,-25.0,30.18,South,180,6.0,7.0,20,0.00,BKN,,0.00,WeatherDisplay:10.37,2013-01-01 17:44:00,
2013-01-01 11:49:00,8.2,-24.7,30.18,South,190,4.6,4.9,20,0.00,BKN,,0.00,WeatherDisplay:10.37,2013-01-01 17:49:00,
2013-01-01 11:54:00,8.4,-24.5,30.18,SSW,195,5.8,5.8,20,0.00,BKN,,0.00,WeatherDisplay:10.37,2013-01-01 17:54:00,
2013-01-01 11:59:00,8.6,-24.4,30.18,South,180,5.8,5.8,20,0.00,BKN,,0.00,WeatherDisplay:10.37,2013-01-01 17:59:00,
2013-01-01 12:04:00,8.8,-24.2,30.18,SSE,160,5.8,5.8,20,0.00,BKN,,0.00,WeatherDisplay:10.37,2013-01-01 18:04:00,
2013-01-01 12:09:00,9.3,-23.8,30.18,SSE,160,4.6,5.5,20,0.00,BKN,,0.00,WeatherDisplay:10.37,2013-01-01 18:09:00,
2013-01-01 12:15:00,8.8,-24.2,30.18,South,180,7.1,7.1,20,0.00,OVC,,0.00,WeatherDisplay:10.37,2013-01-01 18:15:00,
2013-01-01 12:20:00,9.3,-23.8,30.18,SSW,200,3.5,5.8,20,0.00,OVC,,0.00,WeatherDisplay:10.37,2013-01-01 18:20:00,
2013-01-01 12:25:00,9.5,-23.6,30.18,South,180,5.8,5.8,20,0.00,OVC,,0.00,WeatherDisplay:10.37,2013-01-01 18:25:00,
2013-01-01 12:30:00,10.2,-23.0,30.18,SSW,195,9.2,9.2,20,0.00,OVC,,0.00,WeatherDisplay:10.37,2013-01-01 18:30:00,
2013-01-01 12:35:00,10.0,-23.1,30.15,South,185,6.9,6.9,20,0.00,OVC,,0.00,WeatherDisplay:10.37,2013-01-01 18:35:00,
2013-01-01 12:41:00,9.5,-23.6,30.18,South,180,6.9,6.9,20,0.00,OVC,,0.00,WeatherDisplay:10.37,2013-01-01 18:41:00,
2013-01-01 12:46:00,9.3,-23.8,30.15,South,175,9.2,9.2,20,0.00,OVC,,0.00,WeatherDisplay:10.37,2013-01-01 18:46:00,
2013-01-01 12:51:00,9.5,-23.6,30.15,South,175,6.9,7.9,20,0.00,OVC,,0.00,WeatherDisplay:10.37,2013-01-01 18:51:00,
2013-01-01 12:56:00,9.9,-23.3,30.15,South,190,8.1,8.1,20,0.00,OVC,,0.00,WeatherDisplay:10.37,2013-01-01 18:56:00,
2013-01-01 13:01:00,9.9,-23.3,30.15,South,190,8.1,8.1,20,0.00,OVC,,0.00,WeatherDisplay:10.37,2013-01-01 19:01:00,
2013-01-01 13:06:00,10.4,-22.8,30.15,SSW,200,8.1,8.1,20,0.00,OVC,,0.00,WeatherDisplay:10.37,2013-01-01 19:06:00,
2013-01-01 13:12:00,10.6,-22.7,30.15,South,175,10.4,10.4,20,0.00,OVC,,0.00,WeatherDisplay:10.37,2013-01-01 19:12:00,
2013-01-01 13:17:00,10.6,-22.7,30.15,South,180,9.2,9.2,20,0.00,OVC,,0.00,WeatherDisplay:10.37,2013-01-01 19:17:00,
2013-01-01 13:22:00,10.6,-22.7,30.15,South,190,6.9,8.5,20,0.00,OVC,,0.00,WeatherDisplay:10.37,2013-01-01 19:22:00,
2013-01-01 13:27:00,10.2,-23.0,30.15,South,175,8.1,8.4,20,0.00,OVC,,0.00,WeatherDisplay:10.37,2013-01-01 19:27:00,
2013-01-01 13:33:00,10.2,-23.0,30.15,South,180,6.9,8.3,20,0.00,OVC,,0.00,WeatherDisplay:10.37,2013-01-01 19:33:00,
2013-01-01 13:38:00,10.4,-21.9,30.15,SSE,165,10.4,10.4,21,0.00,OVC,,0.00,WeatherDisplay:10.37,2013-01-01 19:38:00,
2013-01-01 13:43:00,10.2,-20.3,30.15,South,185,5.8,7.8,23,0.00,OVC,,0.00,WeatherDisplay:10.37,2013-01-01 19:43:00,
2013-01-01 13:48:00,10.2,-17.9,30.15,SSW,200,8.1,8.1,26,0.00,OVC,,0.00,WeatherDisplay:10.37,2013-01-01 19:48:00,
2013-01-01 13:54:00,10.6,-16.9,30.15,South,180,8.1,8.1,27,0.00,OVC,,0.00,WeatherDisplay:10.37,2013-01-01 19:54:00,
2013-01-01 13:59:00,10.2,-16.5,30.15,South,180,8.1,8.1,28,0.00,OVC,,0.00,WeatherDisplay:10.37,2013-01-01 19:59:00,
2013-01-01 14:04:00,10.4,-15.6,30.15,South,185,9.2,9.2,29,0.00,OVC,,0.00,WeatherDisplay:10.37,2013-01-01 20:04:00,
2013-01-01 14:09:00,10.2,-15.8,30.15,South,185,10.4,10.4,29,0.00,OVC,,0.00,WeatherDisplay:10.37,2013-01-01 20:09:00,
2013-01-01 14:14:00,10.2,-15.1,30.15,SSW,205,11.5,11.5,30,0.00,OVC,,0.00,WeatherDisplay:10.37,2013-01-01 20:14:00,
2013-01-01 14:19:00,10.6,-14.2,30.15,South,185,9.2,9.7,31,0.00,OVC,,0.00,WeatherDisplay:10.37,2013-01-01 20:19:00,
2013-01-01 14:25:00,10.0,-13.4,30.15,South,180,9.2,9.9,33,0.00,OVC,,0.00,WeatherDisplay:10.37,2013-01-01 20:25:00,
2013-01-01 14:30:00,10.0,-13.4,30.15,South,180,8.1,9.9,33,0.00,OVC,,0.00,WeatherDisplay:10.37,2013-01-01 20:30:00,
2013-01-01 14:35:00,10.2,-12.6,30.12,South,190,9.2,9.2,34,0.00,OVC,,0.00,WeatherDisplay:10.37,2013-01-01 20:35:00,
2013-01-01 14:40:00,10.2,-12.1,30.15,South,180,9.2,9.2,35,0.00,OVC,,0.00,WeatherDisplay:10.37,2013-01-01 20:40:00,
2013-01-01 14:45:00,10.2,-12.1,30.15,South,185,9.2,9.2,35,0.00,OVC,,0.00,WeatherDisplay:10.37,2013-01-01 20:45:00,
2013-01-01 14:50:00,10.2,-12.1,30.15,South,185,9.2,9.2,35,0.00,OVC,,0.00,WeatherDisplay:10.37,2013-01-01 20:50:00,
2013-01-01 14:55:00,9.9,-11.8,30.12,South,180,10.4,10.4,36,0.00,OVC,,0.00,WeatherDisplay:10.37,2013-01-01 20:55:00,
2013-01-01 15:01:00,10.0,-11.7,30.15,South,180,9.2,9.4,36,0.00,OVC,,0.00,WeatherDisplay:10.37,2013-01-01 21:01:00,
2013-01-01 15:06:00,10.2,-10.9,30.15,South,180,8.1,9.1,37,0.00,OVC,,0.00,WeatherDisplay:10.37,2013-01-01 21:06:00,
2013-01-01 15:11:00,10.4,-10.8,30.15,SSW,195,6.9,8.9,37,0.00,OVC,,0.00,WeatherDisplay:10.37,2013-01-01 21:11:00,
2013-01-01 15:16:00,10.4,-10.8,30.15,SSW,205,9.2,9.2,37,0.00,OVC,,0.00,WeatherDisplay:10.37,2013-01-01 21:16:00,
2013-01-01 15:21:00,10.4,-10.8,30.15,South,190,5.8,8.2,37,0.00,OVC,,0.00,WeatherDisplay:10.37,2013-01-01 21:21:00,
2013-01-01 15:26:00,10.4,-10.8,30.15,South,180,8.1,8.1,37,0.00,OVC,,0.00,WeatherDisplay:10.37,2013-01-01 21:26:00,
2013-01-01 15:32:00,10.4,-10.8,30.15,South,180,8.1,8.1,37,0.00,OVC,,0.00,WeatherDisplay:10.37,2013-01-01 21:32:00,
2013-01-01 15:37:00,10.4,-10.8,30.15,South,180,8.1,8.1,37,0.00,OVC,,0.00,WeatherDisplay:10.37,2013-01-01 21:37:00,
2013-01-01 15:42:00,10.4,-10.2,30.15,South,185,10.4,10.4,38,0.00,OVC,,0.00,WeatherDisplay:10.37,2013-01-01 21:42:00,
2013-01-01 15:47:00,10.6,-10.1,30.12,South,180,8.1,8.6,38,0.00,OVC,,0.00,WeatherDisplay:10.37,2013-01-01 21:47:00,
2013-01-01 15:52:00,10.4,-10.2,30.12,South,180,9.2,9.2,38,0.00,OVC,,0.00,WeatherDisplay:10.37,2013-01-01 21:52:00,
2013-01-01 15:58:00,10.4,-10.2,30.12,SSW,195,5.8,9.1,38,0.00,OVC,,0.00,WeatherDisplay:10.37,2013-01-01 21:58:00,
2013-01-01 16:03:00,10.4,-10.2,30.15,SSW,200,4.6,8.7,38,0.00,OVC,,0.00,WeatherDisplay:10.37,2013-01-01 22:03:00,
2013-01-01 16:08:00,10.6,-10.1,30.15,South,185,10.4,10.4,38,0.00,OVC,,0.00,WeatherDisplay:10.37,2013-01-01 22:08:00,
2013-01-01 16:14:00,10.6,-10.1,30.15,SSE,165,8.1,8.3,38,0.00,OVC,,0.00,WeatherDisplay:10.37,2013-01-01 22:14:00,
2013-01-01 16:19:00,10.6,-9.5,30.12,South,170,6.9,8.1,39,0.00,OVC,,0.00,WeatherDisplay:10.37,2013-01-01 22:19:00,
2013-01-01 16:24:00,10.6,-9.5,30.12,South,175,8.1,8.1,39,0.00,OVC,,0.00,WeatherDisplay:10.37,2013-01-01 22:24:00,
2013-01-01 16:29:00,10.6,-9.5,30.12,South,175,8.1,8.1,39,0.00,OVC,,0.00,WeatherDisplay:10.37,2013-01-01 22:29:00,
2013-01-01 16:34:00,10.6,-9.5,30.12,South,180,8.1,8.1,39,0.00,OVC,,0.00,WeatherDisplay:10.37,2013-01-01 22:34:00,
2013-01-01 16:39:00,10.6,-9.5,30.12,South,170,5.8,7.2,39,0.00,OVC,,0.00,WeatherDisplay:10.37,2013-01-01 22:39:00,
2013-01-01 16:45:00,10.8,-8.9,30.12,South,190,8.1,8.1,40,0.00,OVC,,0.00,WeatherDisplay:10.37,2013-01-01 22:45:00,
2013-01-01 16:50:00,10.9,-8.7,30.12,South,180,6.9,7.3,40,0.00,OVC,,0.00,WeatherDisplay:10.37,2013-01-01 22:50:00,
2013-01-01 16:55:00,10.9,-8.7,30.12,South,180,5.8,7.1,40,0.00,OVC,,0.00,WeatherDisplay:10.37,2013-01-01 22:55:00,
2013-01-01 17:00:00,10.9,-8.7,30.12,South,180,5.8,6.9,40,0.00,OVC,,0.00,WeatherDisplay:10.37,2013-01-01 23:00:00,
2013-01-01 17:05:00,11.1,-8.0,30.12,South,180,5.8,6.8,41,0.00,OVC,,0.00,WeatherDisplay:10.37,2013-01-01 23:05:00,
2013-01-01 17:10:00,11.3,-7.9,30.12,South,180,4.6,5.9,41,0.00,OVC,,0.00,WeatherDisplay:10.37,2013-01-01 23:10:00,
2013-01-01 17:15:00,11.5,-7.7,30.12,South,175,6.9,6.9,41,0.00,OVC,,0.00,WeatherDisplay:10.37,2013-01-01 23:15:00,
2013-01-01 17:21:00,11.5,-7.2,30.12,South,175,5.8,5.8,42,0.00,OVC,,0.00,WeatherDisplay:10.37,2013-01-01 23:21:00,
2013-01-01 17:26:00,11.7,-7.1,30.12,South,170,8.1,8.1,42,0.00,OVC,,0.00,WeatherDisplay:10.37,2013-01-01 23:26:00,
2013-01-01 17:31:00,11.7,-6.6,30.12,SSE,165,6.9,6.9,43,0.00,OVC,,0.00,WeatherDisplay:10.37,2013-01-01 23:31:00,
2013-01-01 17:36:00,11.8,-6.4,30.12,SSE,160,5.8,6.8,43,0.00,OVC,,0.00,WeatherDisplay:10.37,2013-01-01 23:36:00,
2013-01-01 17:41:00,11.8,-6.4,30.12,SSE,165,6.9,6.9,43,0.00,OVC,,0.00,WeatherDisplay:10.37,2013-01-01 23:41:00,
2013-01-01 17:46:00,12.2,-6.1,30.12,SSE,165,6.9,7.1,43,0.00,OVC,,0.00,WeatherDisplay:10.37,2013-01-01 23:46:00,
2013-01-01 17:51:00,12.2,-6.1,30.12,South,175,4.6,7.1,43,0.00,OVC,,0.00,WeatherDisplay:10.37,2013-01-01 23:51:00,
2013-01-01 17:56:00,12.4,-5.9,30.12,South,180,5.8,6.7,43,0.00,OVC,,0.00,WeatherDisplay:10.37,2013-01-01 23:56:00,
2013-01-01 18:02:00,12.6,-5.3,30.09,SSE,150,6.9,6.9,44,0.00,OVC,,0.00,WeatherDisplay:10.37,2013-01-02 00:02:00,
2013-01-01 18:07:00,12.6,-5.3,30.09,South,190,8.1,8.1,44,0.00,OVC,,0.00,WeatherDisplay:10.37,2013-01-02 00:07:00,
2013-01-01 18:12:00,12.7,-5.1,30.09,South,180,6.9,6.9,44,0.00,OVC,,0.00,WeatherDisplay:10.37,2013-01-02 00:12:00,
2013-01-01 18:17:00,12.7,-5.1,30.09,South,175,9.2,9.2,44,0.00,OVC,,0.00,WeatherDisplay:10.37,2013-01-02 00:17:00,
2013-01-01 18:22:00,12.9,-4.9,30.09,SSE,160,4.6,7.6,44,0.00,OVC,,0.00,WeatherDisplay:10.37,2013-01-02 00:22:00,
2013-01-01 18:27:00,13.1,-4.8,30.09,South,175,6.9,7.5,44,0.00,OVC,,0.00,WeatherDisplay:10.37,2013-01-02 00:27:00,
2013-01-01 18:32:00,13.3,-4.6,30.09,South,180,6.9,7.3,44,0.00,OVC,,0.00,WeatherDisplay:10.37,2013-01-02 00:32:00,
2013-01-01 18:37:00,13.3,-4.1,30.09,South,175,9.2,9.2,45,0.00,OVC,,0.00,WeatherDisplay:10.37,2013-01-02 00:37:00,
2013-01-01 18:43:00,13.3,-4.1,30.09,South,170,10.4,10.4,45,0.00,OVC,,0.00,WeatherDisplay:10.37,2013-01-02 00:43:00,
2013-01-01 18:48:00,13.5,-4.0,30.09,South,180,6.9,8.3,45,0.00,OVC,,0.00,WeatherDisplay:10.37,2013-01-02 00:48:00,
2013-01-01 18:53:00,13.6,-3.8,30.09,South,180,8.1,8.3,45,0.00,OVC,,0.00,WeatherDisplay:10.37,2013-01-02 00:53:00,
2013-01-01 18:58:00,13.8,-3.6,30.09,South,180,8.0,11.0,45,0.00,OVC,,0.00,WeatherDisplay:10.37,2013-01-02 00:58:00,
2013-01-01 19:03:00,14.0,-3.5,30.09,South,170,8.1,8.1,45,0.00,OVC,,0.00,WeatherDisplay:10.37,2013-01-02 01:03:00,
2013-01-01 19:09:00,14.0,-3.5,30.09,South,175,6.9,7.6,45,0.00,OVC,,0.00,WeatherDisplay:10.37,2013-01-02 01:09:00,
2013-01-01 19:14:00,14.2,-3.3,30.09,South,185,6.9,7.5,45,0.00,OVC,,0.00,WeatherDisplay:10.37,2013-01-02 01:14:00,
2013-01-01 19:19:00,14.2,-3.3,30.09,South,170,9.2,9.2,45,0.00,OVC,,0.00,WeatherDisplay:10.37,2013-01-02 01:19:00,
2013-01-01 19:24:00,14.2,-3.3,30.09,South,190,8.1,8.1,45,0.00,OVC,,0.00,WeatherDisplay:10.37,2013-01-02 01:24:00,
2013-01-01 19:30:00,14.2,-3.3,30.09,South,185,5.8,7.7,45,0.00,OVC,,0.00,WeatherDisplay:10.37,2013-01-02 01:30:00,
2013-01-01 19:35:00,14.4,-3.1,30.09,South,175,6.9,7.7,45,0.00,OVC,,0.00,WeatherDisplay:10.37,2013-01-02 01:35:00,
2013-01-01 19:40:00,14.5,-3.0,30.09,South,175,6.9,7.2,45,0.00,OVC,,0.00,WeatherDisplay:10.37,2013-01-02 01:40:00,
2013-01-01 19:45:00,83.5,59.9,30.06,South,170,6.9,6.9,45,0.00,OVC,,0.00,WeatherDisplay:10.37,2013-01-02 01:45:00,
2013-01-01 19:51:00,14.5,-3.0,30.06,South,170,6.9,6.9,45,0.00,OVC,,0.00,WeatherDisplay:10.37,2013-01-02 01:51:00,
2013-01-01 19:56:00,14.7,-2.8,30.06,South,175,9.2,9.2,45,0.00,OVC,,0.00,WeatherDisplay:10.37,2013-01-02 01:56:00,
2013-01-01 20:01:00,14.7,-2.8,30.06,South,185,5.8,7.6,45,0.00,OVC,,0.00,WeatherDisplay:10.37,2013-01-02 02:01:00,
2013-01-01 20:06:00,14.7,-2.4,30.06,SSE,165,6.9,7.6,46,0.00,OVC,,0.00,WeatherDisplay:10.37,2013-01-02 02:06:00,
2013-01-01 20:11:00,14.7,-2.4,30.06,South,180,5.8,7.5,46,0.00,OVC,,0.00,WeatherDisplay:10.37,2013-01-02 02:11:00,
2013-01-01 20:16:00,14.9,-2.2,30.06,South,180,8.1,8.1,46,0.00,OVC,,0.00,WeatherDisplay:10.37,2013-01-02 02:16:00,
2013-01-01 20:21:00,14.9,-2.2,30.06,South,170,6.9,6.9,46,0.00,OVC,,0.00,WeatherDisplay:10.37,2013-01-02 02:21:00,
2013-01-01 20:27:00,14.9,-2.2,30.06,South,175,8.1,8.1,46,0.00,OVC,,0.00,WeatherDisplay:10.37,2013-01-02 02:27:00,
2013-01-01 20:32:00,15.1,-2.0,30.06,South,180,8.1,8.1,46,0.00,OVC,,0.00,WeatherDisplay:10.37,2013-01-02 02:32:00,
2013-01-01 20:37:00,15.3,-1.9,30.06,South,170,6.9,7.5,46,0.00,OVC,,0.00,WeatherDisplay:10.37,2013-01-02 02:37:00,
2013-01-01 20:42:00,15.4,-1.7,30.06,South,170,8.1,8.1,46,0.00,OVC,,0.00,WeatherDisplay:10.37,2013-01-02 02:42:00,
2013-01-01 20:48:00,15.4,-1.7,30.06,South,170,8.1,8.1,46,0.00,OVC,,0.00,WeatherDisplay:10.37,2013-01-02 02:48:00,
2013-01-01 20:53:00,15.6,-1.5,30.06,South,180,5.8,7.4,46,0.00,OVC,,0.00,WeatherDisplay:10.37,2013-01-02 02:53:00,
2013-01-01 20:58:00,15.6,-1.5,30.06,South,175,5.8,6.8,46,0.00,OVC,,0.00,WeatherDisplay:10.37,2013-01-02 02:58:00,
2013-01-01 21:03:00,15.8,-0.9,30.06,South,175,5.8,6.4,47,0.00,OVC,,0.00,WeatherDisplay:10.37,2013-01-02 03:03:00,
2013-01-01 21:09:00,15.8,-0.9,30.06,South,180,4.6,5.8,47,0.00,OVC,,0.00,WeatherDisplay:10.37,2013-01-02 03:09:00,
2013-01-01 21:14:00,16.0,-0.7,30.06,South,180,4.6,5.5,47,0.00,OVC,,0.00,WeatherDisplay:10.37,2013-01-02 03:14:00,
2013-01-01 21:19:00,16.0,-0.7,30.06,SSE,160,5.8,5.8,47,0.00,OVC,,0.00,WeatherDisplay:10.37,2013-01-02 03:19:00,
2013-01-01 21:24:00,16.3,-0.4,30.06,South,180,6.9,6.9,47,0.00,OVC,,0.00,WeatherDisplay:10.37,2013-01-02 03:24:00,
2013-01-01 21:29:00,16.5,0.2,30.06,South,180,6.9,6.9,48,0.00,OVC,,0.00,WeatherDisplay:10.37,2013-01-02 03:29:00,
2013-01-01 21:34:00,16.5,0.2,30.06,South,175,6.9,6.9,48,0.00,OVC,,0.00,WeatherDisplay:10.37,2013-01-02 03:34:00,
2013-01-01 21:39:00,16.7,0.4,30.06,South,180,6.9,6.9,48,0.00,OVC,,0.00,WeatherDisplay:10.37,2013-01-02 03:39:00,
2013-01-01 21:45:00,16.9,0.5,30.06,South,185,4.6,6.3,48,0.00,OVC,,0.00,WeatherDisplay:10.37,2013-01-02 03:45:00,
2013-01-01 21:49:00,16.9,0.5,30.03,South,185,4.6,5.9,48,0.00,OVC,,0.00,WeatherDisplay:10.37,2013-01-02 03:49:00,
2013-01-01 21:55:00,16.9,0.5,30.03,South,170,5.8,6.0,48,0.00,OVC,,0.00,WeatherDisplay:10.37,2013-01-02 03:55:00,
2013-01-01 22:00:00,16.9,0.5,30.03,South,170,5.8,5.8,48,0.00,OVC,,0.00,WeatherDisplay:10.37,2013-01-02 04:00:00,
2013-01-01 22:01:00,18.3,3.2,30.03,South,180,9.2,9.2,51,0.00,OVC,,0.00,WeatherDisplay:10.37,2013-01-02 04:01:00,
2013-01-01 22:02:00,18.3,3.2,30.03,South,180,9.2,9.2,51,0.00,OVC,,0.00,WeatherDisplay:10.37,2013-01-02 04:02:00,
2013-01-01 22:03:00,18.3,3.2,30.03,South,180,9.2,9.2,51,0.00,OVC,,0.00,WeatherDisplay:10.37,2013-01-02 04:03:00,
2013-01-01 22:04:00,18.5,3.4,30.03,SSW,200,8.1,8.6,51,0.00,OVC,,0.00,WeatherDisplay:10.37,2013-01-02 04:04:00,
2013-01-01 22:05:00,17.1,1.2,30.03,South,170,5.8,6.0,49,0.00,OVC,,0.00,WeatherDisplay:10.37,2013-01-02 04:05:00,
2013-01-01 22:06:00,18.5,3.4,30.03,SSW,200,8.1,8.6,51,0.00,OVC,,0.00,WeatherDisplay:10.37,2013-01-02 04:06:00,
2013-01-01 22:07:00,18.3,3.2,30.03,South,180,12.7,12.7,51,0.00,OVC,,0.00,WeatherDisplay:10.37,2013-01-02 04:07:00,
2013-01-01 22:08:00,18.3,3.2,30.03,South,180,12.7,12.7,51,0.00,OVC,,0.00,WeatherDisplay:10.37,2013-01-02 04:08:00,
2013-01-01 22:09:00,18.3,3.2,30.03,South,180,12.7,12.7,51,0.00,OVC,,0.00,WeatherDisplay:10.37,2013-01-02 04:09:00,
2013-01-01 22:10:00,17.1,1.2,30.03,South,170,5.8,5.8,49,0.00,OVC,,0.00,WeatherDisplay:10.37,2013-01-02 04:10:00,
2013-01-01 22:11:00,18.5,3.4,30.03,South,185,11.5,11.5,51,0.00,OVC,,0.00,WeatherDisplay:10.37,2013-01-02 04:11:00,
2013-01-01 22:12:00,18.5,3.4,30.03,South,185,11.5,11.5,51,0.00,OVC,,0.00,WeatherDisplay:10.37,2013-01-02 04:12:00,
2013-01-01 22:13:00,18.5,3.4,30.03,South,185,8.1,10.5,51,0.00,OVC,,0.00,WeatherDisplay:10.37,2013-01-02 04:13:00,
2013-01-01 22:14:00,18.5,3.4,30.03,South,185,8.1,10.5,51,0.00,OVC,,0.00,WeatherDisplay:10.37,2013-01-02 04:14:00,
2013-01-01 22:15:00,18.5,3.4,30.03,South,184,10.0,13.0,51,0.00,OVC,,0.00,WeatherDisplay:10.37,2013-01-02 04:15:00,
2013-01-01 22:16:00,17.2,1.3,30.03,SSE,165,3.5,5.6,49,0.00,OVC,,0.00,WeatherDisplay:10.37,2013-01-02 04:16:00,
2013-01-01 22:17:00,18.5,3.4,30.03,South,185,11.5,11.5,51,0.00,OVC,,0.00,WeatherDisplay:10.37,2013-01-02 04:17:00,
2013-01-01 22:18:00,18.5,3.4,30.03,South,185,11.5,11.5,51,0.00,OVC,,0.00,WeatherDisplay:10.37,2013-01-02 04:18:00,
2013-01-01 22:19:00,18.5,3.4,30.03,South,180,15.0,15.0,51,0.00,OVC,,0.00,WeatherDisplay:10.37,2013-01-02 04:19:00,
2013-01-01 22:20:00,18.5,3.4,30.03,South,180,15.0,15.0,51,0.00,OVC,,0.00,WeatherDisplay:10.37,2013-01-02 04:20:00,
2013-01-01 22:21:00,17.4,1.5,30.03,South,175,3.5,4.6,49,0.00,OVC,,0.00,WeatherDisplay:10.37,2013-01-02 04:21:00,
2013-01-01 22:22:00,18.5,3.4,30.03,SSW,205,9.2,10.9,51,0.00,OVC,,0.00,WeatherDisplay:10.37,2013-01-02 04:22:00,
2013-01-01 22:23:00,18.5,3.4,30.03,SSW,205,9.2,10.9,51,0.00,OVC,,0.00,WeatherDisplay:10.37,2013-01-02 04:23:00,
2013-01-01 22:24:00,18.5,3.4,30.03,SSW,205,9.2,10.9,51,0.00,OVC,,0.00,WeatherDisplay:10.37,2013-01-02 04:24:00,
2013-01-01 22:25:00,18.5,3.4,30.03,South,185,9.2,11.0,51,0.00,OVC,,0.00,WeatherDisplay:10.37,2013-01-02 04:25:00,
2013-01-01 22:26:00,17.4,1.5,30.03,South,180,4.6,4.6,49,0.00,OVC,,0.00,WeatherDisplay:10.37,2013-01-02 04:26:00,
2013-01-01 22:27:00,18.5,3.4,30.03,South,185,9.2,11.0,51,0.00,OVC,,0.00,WeatherDisplay:10.37,2013-01-02 04:27:00,
2013-01-01 22:28:00,18.5,3.4,30.03,South,190,8.1,10.7,51,0.00,OVC,,0.00,WeatherDisplay:10.37,2013-01-02 04:28:00,
2013-01-01 22:29:00,18.5,3.4,30.03,South,190,8.1,10.7,51,0.00,OVC,,0.00,WeatherDisplay:10.37,2013-01-02 04:29:00,
2013-01-01 22:30:00,18.5,3.4,30.03,SSW,193,10.0,15.0,51,0.00,OVC,,0.00,WeatherDisplay:10.37,2013-01-02 04:30:00,
2013-01-01 22:31:00,17.6,2.1,30.03,South,185,2.3,4.0,50,0.00,OVC,,0.00,WeatherDisplay:10.37,2013-01-02 04:31:00,
2013-01-01 22:32:00,18.5,3.4,30.03,South,175,10.4,10.4,51,0.00,OVC,,0.00,WeatherDisplay:10.37,2013-01-02 04:32:00,
2013-01-01 22:34:00,18.5,3.4,30.03,South,185,11.5,11.5,51,0.00,OVC,,0.00,WeatherDisplay:10.37,2013-01-02 04:34:00,
2013-01-01 22:36:00,17.8,2.3,30.03,South,185,5.8,5.8,50,0.00,OVC,,0.00,WeatherDisplay:10.37,2013-01-02 04:36:00,
2013-01-01 22:38:00,18.5,3.4,30.03,SSW,195,12.7,12.7,51,0.00,OVC,,0.00,WeatherDisplay:10.37,2013-01-02 04:38:00,
2013-01-01 22:41:00,17.8,2.3,30.03,South,185,5.8,5.8,50,0.00,OVC,,0.00,WeatherDisplay:10.37,2013-01-02 04:41:00,
2013-01-01 22:46:00,18.0,2.4,30.03,South,185,5.8,5.8,50,0.00,OVC,,0.00,WeatherDisplay:10.37,2013-01-02 04:46:00,
2013-01-01 22:52:00,18.1,2.6,30.03,SSW,200,8.1,8.1,50,0.00,OVC,,0.00,WeatherDisplay:10.37,2013-01-02 04:52:00,
2013-01-01 22:57:00,18.3,2.8,30.03,South,190,11.5,11.5,50,0.00,OVC,,0.00,WeatherDisplay:10.37,2013-01-02 04:57:00,
2013-01-01 23:18:00,18.5,3.4,30.03,South,185,11.5,11.5,51,0.00,OVC,,0.00,WeatherDisplay:10.37,2013-01-02 05:18:00,
2013-01-01 23:23:00,18.5,3.4,30.03,SSW,205,9.2,10.9,51,0.00,OVC,,0.00,WeatherDisplay:10.37,2013-01-02 05:23:00,
2013-01-01 23:28:00,18.5,3.4,30.03,South,190,8.1,10.7,51,0.00,OVC,,0.00,WeatherDisplay:10.37,2013-01-02 05:28:00,
2013-01-01 23:34:00,18.5,3.4,30.03,South,185,11.5,11.5,51,0.00,OVC,,0.00,WeatherDisplay:10.37,2013-01-02 05:34:00,
2013-01-01 23:39:00,18.5,3.4,30.03,South,185,10.4,10.4,51,0.00,OVC,,0.00,WeatherDisplay:10.37,2013-01-02 05:39:00,
2013-01-01 23:45:00,18.5,3.4,30.03,SSW,200,9.2,10.2,51,0.00,OVC,,0.00,WeatherDisplay:10.37,2013-01-02 05:45:00,
2013-01-01 23:50:00,18.7,3.5,30.03,South,185,10.4,10.4,51,0.00,OVC,,0.00,WeatherDisplay:10.37,2013-01-02 05:50:00,
2013-01-01 23:55:00,18.7,3.5,30.03,South,180,9.2,10.5,51,0.00,OVC,,0.00,WeatherDisplay:10.37,2013-01-02 05:55:00,